sensor_id;sensor_type;location;lat;lon;timestamp;pressure;altitude;pressure_sealevel;temperature;humidity
51249;BME280;39642;47.556;18.728;2024-01-30T00:01:55;101876.81;;;22.24;25.81
51249;BME280;39642;47.556;18.728;2024-01-30T00:04:21;101867.16;;;22.23;25.82
51249;BME280;39642;47.556;18.728;2024-01-30T00:06:47;101875.97;;;22.23;25.76
51249;BME280;39642;47.556;18.728;2024-01-30T00:09:13;101875.09;;;22.23;25.59
51249;BME280;39642;47.556;18.728;2024-01-30T00:11:39;101876.91;;;22.22;25.92
51249;BME280;39642;47.556;18.728;2024-01-30T00:14:05;101869.78;;;22.23;25.84
51249;BME280;39642;47.556;18.728;2024-01-30T00:16:31;101876.91;;;22.22;25.87
51249;BME280;39642;47.556;18.728;2024-01-30T00:18:57;101880.44;;;22.21;25.98
51249;BME280;39642;47.556;18.728;2024-01-30T00:21:23;101882.22;;;22.21;26.04
51249;BME280;39642;47.556;18.728;2024-01-30T00:23:49;101876.91;;;22.21;26.18
51249;BME280;39642;47.556;18.728;2024-01-30T00:26:15;101881.34;;;22.20;25.98
51249;BME280;39642;47.556;18.728;2024-01-30T00:28:41;101875.22;;;22.18;26.04
51249;BME280;39642;47.556;18.728;2024-01-30T00:31:08;101879.66;;;22.18;26.22
51249;BME280;39642;47.556;18.728;2024-01-30T00:33:41;101878.84;;;22.16;26.34
51249;BME280;39642;47.556;18.728;2024-01-30T00:36:08;101877.94;;;22.15;26.04
51249;BME280;39642;47.556;18.728;2024-01-30T00:38:34;101881.53;;;22.14;26.30
51249;BME280;39642;47.556;18.728;2024-01-30T00:41:00;101880.69;;;22.14;26.21
51249;BME280;39642;47.556;18.728;2024-01-30T00:43:27;101890.41;;;22.13;25.98
51249;BME280;39642;47.556;18.728;2024-01-30T00:45:53;101892.19;;;22.13;26.33
51249;BME280;39642;47.556;18.728;2024-01-30T00:48:20;101893.97;;;22.12;26.42
51249;BME280;39642;47.556;18.728;2024-01-30T00:50:46;101891.34;;;22.12;26.34
51249;BME280;39642;47.556;18.728;2024-01-30T00:53:12;101886.06;;;22.11;25.92
51249;BME280;39642;47.556;18.728;2024-01-30T00:55:38;101886.06;;;22.11;26.23
51249;BME280;39642;47.556;18.728;2024-01-30T00:58:04;101886.97;;;22.11;26.20
51249;BME280;39642;47.556;18.728;2024-01-30T01:00:30;101877.13;;;22.13;25.91
51249;BME280;39642;47.556;18.728;2024-01-30T01:02:58;101884.19;;;22.14;25.96
51249;BME280;39642;47.556;18.728;2024-01-30T01:05:24;101878.03;;;22.14;25.73
51249;BME280;39642;47.556;18.728;2024-01-30T01:07:50;101879.75;;;22.15;25.79
51249;BME280;39642;47.556;18.728;2024-01-30T01:10:16;101877.94;;;22.15;25.71
51249;BME280;39642;47.556;18.728;2024-01-30T01:12:43;101877.94;;;22.15;25.64
51249;BME280;39642;47.556;18.728;2024-01-30T01:15:09;101875.25;;;22.17;25.59
51249;BME280;39642;47.556;18.728;2024-01-30T01:17:36;101872.56;;;22.18;25.50
51249;BME280;39642;47.556;18.728;2024-01-30T01:20:03;101874.28;;;22.19;25.48
51249;BME280;39642;47.556;18.728;2024-01-30T01:22:31;101866.31;;;22.19;25.56
51249;BME280;39642;47.556;18.728;2024-01-30T01:24:57;101860.97;;;22.21;25.47
51249;BME280;39642;47.556;18.728;2024-01-30T01:27:22;101856.56;;;22.21;25.45
51249;BME280;39642;47.556;18.728;2024-01-30T01:29:48;101867.16;;;22.23;25.53
51249;BME280;39642;47.556;18.728;2024-01-30T01:32:14;101853.81;;;22.24;25.28
51249;BME280;39642;47.556;18.728;2024-01-30T01:34:40;101853.87;;;22.23;25.43
51249;BME280;39642;47.556;18.728;2024-01-30T01:37:06;101855.59;;;22.24;25.46
51249;BME280;39642;47.556;18.728;2024-01-30T01:39:33;101848.56;;;22.23;25.45
51249;BME280;39642;47.556;18.728;2024-01-30T01:41:59;101848.56;;;22.23;25.48
51249;BME280;39642;47.556;18.728;2024-01-30T01:44:25;101850.34;;;22.22;25.47
51249;BME280;39642;47.556;18.728;2024-01-30T01:46:51;101847.72;;;22.22;25.52
51249;BME280;39642;47.556;18.728;2024-01-30T01:49:18;101841.50;;;22.22;25.69
51249;BME280;39642;47.556;18.728;2024-01-30T01:51:47;101840.66;;;22.21;25.57
51249;BME280;39642;47.556;18.728;2024-01-30T01:54:14;101841.53;;;22.20;25.64
51249;BME280;39642;47.556;18.728;2024-01-30T01:56:42;101842.44;;;22.19;25.57
51249;BME280;39642;47.556;18.728;2024-01-30T01:59:08;101841.59;;;22.19;25.78
51249;BME280;39642;47.556;18.728;2024-01-30T02:01:37;101847.81;;;22.18;25.94
51249;BME280;39642;47.556;18.728;2024-01-30T02:04:04;101846.06;;;22.17;25.84
51249;BME280;39642;47.556;18.728;2024-01-30T02:06:31;101852.31;;;22.16;25.97
51249;BME280;39642;47.556;18.728;2024-01-30T02:08:57;101851.41;;;22.15;25.80
51249;BME280;39642;47.556;18.728;2024-01-30T02:11:23;101840.88;;;22.14;25.84
51249;BME280;39642;47.556;18.728;2024-01-30T02:13:50;101839.12;;;22.13;26.00
51249;BME280;39642;47.556;18.728;2024-01-30T02:16:16;101841.78;;;22.13;25.99
51249;BME280;39642;47.556;18.728;2024-01-30T02:18:45;101839.12;;;22.13;26.07
51249;BME280;39642;47.556;18.728;2024-01-30T02:21:15;101840.97;;;22.11;25.93
51249;BME280;39642;47.556;18.728;2024-01-30T02:23:43;101833.00;;;22.11;26.06
51249;BME280;39642;47.556;18.728;2024-01-30T02:26:09;101835.66;;;22.11;25.89
51249;BME280;39642;47.556;18.728;2024-01-30T02:28:35;101830.34;;;22.11;25.39
51249;BME280;39642;47.556;18.728;2024-01-30T02:31:01;101827.69;;;22.11;25.65
51249;BME280;39642;47.556;18.728;2024-01-30T02:33:26;101832.97;;;22.12;25.39
51249;BME280;39642;47.556;18.728;2024-01-30T02:35:52;101835.62;;;22.12;25.51
51249;BME280;39642;47.556;18.728;2024-01-30T02:38:18;101840.00;;;22.13;25.53
51249;BME280;39642;47.556;18.728;2024-01-30T02:40:44;101825.81;;;22.14;25.31
51249;BME280;39642;47.556;18.728;2024-01-30T02:43:10;101832.00;;;22.15;25.38
51249;BME280;39642;47.556;18.728;2024-01-30T02:45:36;101834.59;;;22.16;25.28
51249;BME280;39642;47.556;18.728;2024-01-30T02:48:02;101832.81;;;22.17;25.16
51249;BME280;39642;47.556;18.728;2024-01-30T02:50:28;101830.97;;;22.19;25.18
51249;BME280;39642;47.556;18.728;2024-01-30T02:52:53;101829.19;;;22.19;25.15
51249;BME280;39642;47.556;18.728;2024-01-30T02:55:22;101828.28;;;22.20;25.14
51249;BME280;39642;47.556;18.728;2024-01-30T02:57:48;101832.69;;;22.21;25.13
51249;BME280;39642;47.556;18.728;2024-01-30T03:00:14;101830.88;;;22.22;25.05
51249;BME280;39642;47.556;18.728;2024-01-30T03:02:40;101835.28;;;22.23;25.04
51249;BME280;39642;47.556;18.728;2024-01-30T03:05:06;101841.47;;;22.23;25.05
51249;BME280;39642;47.556;18.728;2024-01-30T03:07:33;101844.13;;;22.23;25.19
51249;BME280;39642;47.556;18.728;2024-01-30T03:09:59;101842.31;;;22.24;24.97
51249;BME280;39642;47.556;18.728;2024-01-30T03:12:25;101844.97;;;22.24;25.16
51249;BME280;39642;47.556;18.728;2024-01-30T03:14:51;101848.50;;;22.24;25.14
51249;BME280;39642;47.556;18.728;2024-01-30T03:17:17;101849.44;;;22.23;25.05
51249;BME280;39642;47.556;18.728;2024-01-30T03:19:43;101849.44;;;22.23;25.17
51249;BME280;39642;47.556;18.728;2024-01-30T03:22:08;101850.28;;;22.24;24.98
51249;BME280;39642;47.556;18.728;2024-01-30T03:24:34;101839.75;;;22.22;25.24
51249;BME280;39642;47.556;18.728;2024-01-30T03:27:00;101836.19;;;22.22;25.17
51249;BME280;39642;47.556;18.728;2024-01-30T03:29:27;101843.31;;;22.21;25.38
51249;BME280;39642;47.556;18.728;2024-01-30T03:31:52;101843.31;;;22.20;25.03
51249;BME280;39642;47.556;18.728;2024-01-30T03:34:18;101836.28;;;22.19;25.58
51249;BME280;39642;47.556;18.728;2024-01-30T03:36:44;101835.41;;;22.18;25.18
51249;BME280;39642;47.556;18.728;2024-01-30T03:39:10;101837.25;;;22.16;25.11
51249;BME280;39642;47.556;18.728;2024-01-30T03:41:36;101835.50;;;22.15;25.27
51249;BME280;39642;47.556;18.728;2024-01-30T03:44:02;101831.13;;;22.14;25.69
51249;BME280;39642;47.556;18.728;2024-01-30T03:46:28;101831.13;;;22.14;25.66
51249;BME280;39642;47.556;18.728;2024-01-30T03:48:54;101828.50;;;22.13;25.50
51249;BME280;39642;47.556;18.728;2024-01-30T03:51:20;101827.66;;;22.12;25.49
51249;BME280;39642;47.556;18.728;2024-01-30T03:53:46;101830.31;;;22.12;25.65
51249;BME280;39642;47.556;18.728;2024-01-30T03:56:12;101823.28;;;22.11;25.53
51249;BME280;39642;47.556;18.728;2024-01-30T03:58:39;101823.28;;;22.11;25.17
51249;BME280;39642;47.556;18.728;2024-01-30T04:01:05;101833.00;;;22.11;25.57
51249;BME280;39642;47.556;18.728;2024-01-30T04:03:31;101819.72;;;22.11;25.62
51249;BME280;39642;47.556;18.728;2024-01-30T04:05:57;101822.38;;;22.11;25.33
51249;BME280;39642;47.556;18.728;2024-01-30T04:08:23;101818.84;;;22.12;25.25
51249;BME280;39642;47.556;18.728;2024-01-30T04:10:49;101823.28;;;22.11;25.24
51249;BME280;39642;47.556;18.728;2024-01-30T04:13:15;101825.84;;;22.13;25.18
51249;BME280;39642;47.556;18.728;2024-01-30T04:15:40;101817.00;;;22.14;25.14
51249;BME280;39642;47.556;18.728;2024-01-30T04:18:06;101821.38;;;22.15;25.09
51249;BME280;39642;47.556;18.728;2024-01-30T04:20:32;101819.56;;;22.15;25.00
51249;BME280;39642;47.556;18.728;2024-01-30T04:22:58;101816.87;;;22.17;24.88
51249;BME280;39642;47.556;18.728;2024-01-30T04:25:24;101819.53;;;22.17;24.86
51249;BME280;39642;47.556;18.728;2024-01-30T04:27:50;101823.87;;;22.19;24.84
51249;BME280;39642;47.556;18.728;2024-01-30T04:30:16;101822.06;;;22.20;24.86
51249;BME280;39642;47.556;18.728;2024-01-30T04:32:42;101826.47;;;22.21;24.82
51249;BME280;39642;47.556;18.728;2024-01-30T04:35:09;101823.84;;;22.21;24.72
51249;BME280;39642;47.556;18.728;2024-01-30T04:37:34;101817.63;;;22.22;24.81
51249;BME280;39642;47.556;18.728;2024-01-30T04:40:00;101822.88;;;22.23;24.82
51249;BME280;39642;47.556;18.728;2024-01-30T04:42:26;101824.59;;;22.24;24.87
51249;BME280;39642;47.556;18.728;2024-01-30T04:44:52;101821.09;;;22.24;24.92
51249;BME280;39642;47.556;18.728;2024-01-30T04:47:18;101832.56;;;22.24;24.87
51249;BME280;39642;47.556;18.728;2024-01-30T04:49:44;101834.38;;;22.24;24.89
51249;BME280;39642;47.556;18.728;2024-01-30T04:52:10;101835.28;;;22.23;25.12
51249;BME280;39642;47.556;18.728;2024-01-30T04:54:36;101825.53;;;22.23;25.04
51249;BME280;39642;47.556;18.728;2024-01-30T04:57:02;101831.72;;;22.24;24.98
51249;BME280;39642;47.556;18.728;2024-01-30T04:59:28;101836.19;;;22.22;24.74
51249;BME280;39642;47.556;18.728;2024-01-30T05:01:54;101834.44;;;22.21;25.11
51249;BME280;39642;47.556;18.728;2024-01-30T05:04:20;101834.44;;;22.21;25.00
51249;BME280;39642;47.556;18.728;2024-01-30T05:06:47;101840.66;;;22.20;25.40
51249;BME280;39642;47.556;18.728;2024-01-30T05:09:13;101839.87;;;22.18;25.16
51249;BME280;39642;47.556;18.728;2024-01-30T05:11:40;101839.87;;;22.18;25.19
51249;BME280;39642;47.556;18.728;2024-01-30T05:14:06;101843.41;;;22.17;25.05
51249;BME280;39642;47.556;18.728;2024-01-30T05:16:33;101839.94;;;22.15;25.01
51249;BME280;39642;47.556;18.728;2024-01-30T05:18:59;101847.91;;;22.15;25.27
51249;BME280;39642;47.556;18.728;2024-01-30T05:21:25;101844.41;;;22.14;25.40
51249;BME280;39642;47.556;18.728;2024-01-30T05:23:51;101855.00;;;22.14;25.30
51249;BME280;39642;47.556;18.728;2024-01-30T05:26:17;101857.69;;;22.13;25.34
51249;BME280;39642;47.556;18.728;2024-01-30T05:28:43;101859.50;;;22.12;25.46
51249;BME280;39642;47.556;18.728;2024-01-30T05:31:12;101866.59;;;22.12;25.50
51249;BME280;39642;47.556;18.728;2024-01-30T05:33:38;101863.94;;;22.12;25.37
51249;BME280;39642;47.556;18.728;2024-01-30T05:36:04;101863.06;;;22.11;25.22
51249;BME280;39642;47.556;18.728;2024-01-30T05:38:30;101863.06;;;22.11;25.15
51249;BME280;39642;47.556;18.728;2024-01-30T05:40:57;101863.06;;;22.11;25.31
51249;BME280;39642;47.556;18.728;2024-01-30T05:43:26;101863.97;;;22.10;24.90
51249;BME280;39642;47.556;18.728;2024-01-30T05:45:52;101862.19;;;22.11;25.64
51249;BME280;39642;47.556;18.728;2024-01-30T05:48:18;101863.94;;;22.12;25.20
51249;BME280;39642;47.556;18.728;2024-01-30T05:50:44;101868.31;;;22.13;26.73
51249;BME280;39642;47.556;18.728;2024-01-30T05:53:11;101865.56;;;22.16;27.51
51249;BME280;39642;47.556;18.728;2024-01-30T05:55:37;101861.94;;;22.18;28.07
51249;BME280;39642;47.556;18.728;2024-01-30T05:58:03;101865.44;;;22.20;26.88
51249;BME280;39642;47.556;18.728;2024-01-30T06:00:29;101859.22;;;22.20;26.74
51249;BME280;39642;47.556;18.728;2024-01-30T06:02:55;101860.13;;;22.20;27.09
51249;BME280;39642;47.556;18.728;2024-01-30T06:05:21;101858.31;;;22.22;26.08
51249;BME280;39642;47.556;18.728;2024-01-30T06:07:47;101865.34;;;22.23;26.76
51249;BME280;39642;47.556;18.728;2024-01-30T06:16:59;101861.69;;;22.28;26.31
51249;BME280;39642;47.556;18.728;2024-01-30T06:19:25;101859.00;;;22.29;26.35
51249;BME280;39642;47.556;18.728;2024-01-30T06:21:52;101860.72;;;22.30;26.47
51249;BME280;39642;47.556;18.728;2024-01-30T06:24:18;101867.81;;;22.30;25.86
51249;BME280;39642;47.556;18.728;2024-01-30T06:26:44;101867.84;;;22.28;25.83
51249;BME280;39642;47.556;18.728;2024-01-30T06:29:11;101878.34;;;22.31;26.31
51249;BME280;39642;47.556;18.728;2024-01-30T06:31:41;101879.28;;;22.30;26.25
51249;BME280;39642;47.556;18.728;2024-01-30T06:34:08;101867.06;;;22.24;27.08
51249;BME280;39642;47.556;18.728;2024-01-30T06:36:35;101871.59;;;22.22;26.34
51249;BME280;39642;47.556;18.728;2024-01-30T06:39:02;101876.81;;;22.24;26.76
51249;BME280;39642;47.556;18.728;2024-01-30T06:41:29;101867.97;;;22.25;26.65
51249;BME280;39642;47.556;18.728;2024-01-30T06:43:56;101875.16;;;22.20;26.07
51249;BME280;39642;47.556;18.728;2024-01-30T06:46:22;101875.44;;;22.11;25.79
51249;BME280;39642;47.556;18.728;2024-01-30T06:48:49;101873.84;;;22.07;25.75
51249;BME280;39642;47.556;18.728;2024-01-30T06:51:15;101876.72;;;21.99;26.13
51249;BME280;39642;47.556;18.728;2024-01-30T06:53:41;101873.31;;;21.95;26.17
51249;BME280;39642;47.556;18.728;2024-01-30T06:56:08;101883.09;;;21.93;25.87
51249;BME280;39642;47.556;18.728;2024-01-30T06:58:34;101878.81;;;21.89;25.55
51249;BME280;39642;47.556;18.728;2024-01-30T07:01:00;101877.28;;;21.80;25.45
51249;BME280;39642;47.556;18.728;2024-01-30T07:03:27;101872.97;;;21.78;25.40
51249;BME280;39642;47.556;18.728;2024-01-30T07:05:54;101870.31;;;21.78;25.42
51249;BME280;39642;47.556;18.728;2024-01-30T07:08:20;101879.91;;;21.82;25.79
51249;BME280;39642;47.556;18.728;2024-01-30T07:10:46;101881.53;;;21.86;25.25
51249;BME280;39642;47.556;18.728;2024-01-30T07:13:13;101880.59;;;21.89;25.07
51249;BME280;39642;47.556;18.728;2024-01-30T07:15:42;101883.12;;;21.92;25.51
51249;BME280;39642;47.556;18.728;2024-01-30T07:18:09;101875.97;;;21.95;25.20
51249;BME280;39642;47.556;18.728;2024-01-30T07:20:35;101871.44;;;21.97;24.97
51249;BME280;39642;47.556;18.728;2024-01-30T07:23:01;101872.28;;;21.99;24.87
51249;BME280;39642;47.556;18.728;2024-01-30T07:25:29;101870.44;;;22.01;24.85
51249;BME280;39642;47.556;18.728;2024-01-30T07:27:56;101874.78;;;22.04;24.88
51249;BME280;39642;47.556;18.728;2024-01-30T07:30:23;101873.84;;;22.07;24.87
51249;BME280;39642;47.556;18.728;2024-01-30T07:32:49;101878.09;;;22.11;25.22
51249;BME280;39642;47.556;18.728;2024-01-30T07:35:16;101873.63;;;22.13;25.64
51249;BME280;39642;47.556;18.728;2024-01-30T07:37:42;101877.94;;;22.15;25.17
51249;BME280;39642;47.556;18.728;2024-01-30T07:40:09;101877.87;;;22.18;25.19
51249;BME280;39642;47.556;18.728;2024-01-30T07:42:35;101869.84;;;22.20;25.06
51249;BME280;39642;47.556;18.728;2024-01-30T07:45:02;101871.59;;;22.21;25.63
51249;BME280;39642;47.556;18.728;2024-01-30T07:47:28;101869.72;;;22.24;25.59
51249;BME280;39642;47.556;18.728;2024-01-30T07:49:54;101879.28;;;22.30;26.35
51249;BME280;39642;47.556;18.728;2024-01-30T07:52:21;101872.12;;;22.32;25.98
51249;BME280;39642;47.556;18.728;2024-01-30T07:54:47;101868.66;;;22.30;26.01
51249;BME280;39642;47.556;18.728;2024-01-30T07:57:13;101875.81;;;22.28;25.60
51249;BME280;39642;47.556;18.728;2024-01-30T07:59:42;101882.88;;;22.29;27.37
51249;BME280;39642;47.556;18.728;2024-01-30T08:02:10;101870.34;;;22.33;27.94
51249;BME280;39642;47.556;18.728;2024-01-30T08:04:36;101871.16;;;22.35;27.83
51249;BME280;39642;47.556;18.728;2024-01-30T08:07:02;101881.75;;;22.36;27.53
51249;BME280;39642;47.556;18.728;2024-01-30T08:09:43;101876.38;;;22.38;27.29
51249;BME280;39642;47.556;18.728;2024-01-30T08:12:10;101874.59;;;22.38;27.35
51249;BME280;39642;47.556;18.728;2024-01-30T08:14:36;101869.34;;;22.37;27.11
51249;BME280;39642;47.556;18.728;2024-01-30T08:17:02;101875.47;;;22.39;27.68
51249;BME280;39642;47.556;18.728;2024-01-30T08:19:28;101877.13;;;22.41;27.12
51249;BME280;39642;47.556;18.728;2024-01-30T08:21:55;101878.16;;;22.37;26.28
51249;BME280;39642;47.556;18.728;2024-01-30T08:24:21;101885.31;;;22.35;26.37
51249;BME280;39642;47.556;18.728;2024-01-30T08:26:48;101878.34;;;22.31;25.52
51249;BME280;39642;47.556;18.728;2024-01-30T08:29:14;101889.94;;;22.29;25.36
51249;BME280;39642;47.556;18.728;2024-01-30T08:41:24;101887.53;;;22.21;25.08
51249;BME280;39642;47.556;18.728;2024-01-30T08:43:50;101885.75;;;22.20;25.03
51249;BME280;39642;47.556;18.728;2024-01-30T08:53:29;101892.88;;;22.19;27.32
51249;BME280;39642;47.556;18.728;2024-01-30T08:55:55;101891.06;;;22.21;26.78
51249;BME280;39642;47.556;18.728;2024-01-30T08:58:21;101896.34;;;22.23;27.09
51249;BME280;39642;47.556;18.728;2024-01-30T09:00:47;101884.87;;;22.21;27.20
51249;BME280;39642;47.556;18.728;2024-01-30T09:03:12;101891.94;;;22.22;27.59
51249;BME280;39642;47.556;18.728;2024-01-30T09:12:23;101882.19;;;22.22;26.94
51249;BME280;39642;47.556;18.728;2024-01-30T09:18:21;101885.75;;;22.20;26.89
51249;BME280;39642;47.556;18.728;2024-01-30T09:20:48;101891.06;;;22.20;27.93
51249;BME280;39642;47.556;18.728;2024-01-30T09:26:43;101888.50;;;22.18;26.76
51249;BME280;39642;47.556;18.728;2024-01-30T09:45:27;101877.78;;;22.21;26.96
51249;BME280;39642;47.556;18.728;2024-01-30T09:47:53;101883.88;;;22.25;27.18
51249;BME280;39642;47.556;18.728;2024-01-30T09:50:20;101882.88;;;22.29;27.07
51249;BME280;39642;47.556;18.728;2024-01-30T09:52:47;101884.75;;;22.26;26.88
51249;BME280;39642;47.556;18.728;2024-01-30T09:55:13;101885.75;;;22.20;27.03
51249;BME280;39642;47.556;18.728;2024-01-30T09:57:41;101875.25;;;22.17;26.65
51249;BME280;39642;47.556;18.728;2024-01-30T10:10:15;101876.28;;;22.13;27.10
51249;BME280;39642;47.556;18.728;2024-01-30T10:12:41;101869.12;;;22.15;26.91
51249;BME280;39642;47.556;18.728;2024-01-30T10:15:07;101874.34;;;22.18;27.13
51249;BME280;39642;47.556;18.728;2024-01-30T10:17:37;101869.84;;;22.20;26.99
51249;BME280;39642;47.556;18.728;2024-01-30T10:20:18;101875.09;;;22.23;26.55
51249;BME280;39642;47.556;18.728;2024-01-30T10:22:45;101879.47;;;22.24;26.61
51249;BME280;39642;47.556;18.728;2024-01-30T10:25:12;101871.59;;;22.22;26.92
51249;BME280;39642;47.556;18.728;2024-01-30T10:27:39;101873.31;;;22.23;26.95
51249;BME280;39642;47.556;18.728;2024-01-30T10:46:56;101860.44;;;22.11;29.45
51249;BME280;39642;47.556;18.728;2024-01-30T10:49:27;101851.72;;;22.06;27.97
51249;BME280;39642;47.556;18.728;2024-01-30T10:51:54;101851.97;;;21.98;29.36
51249;BME280;39642;47.556;18.728;2024-01-30T10:54:23;101841.53;;;21.94;29.34
51249;BME280;39642;47.556;18.728;2024-01-30T10:56:51;101838.94;;;21.91;28.59
51249;BME280;39642;47.556;18.728;2024-01-30T10:59:18;101832.88;;;21.87;28.27
51249;BME280;39642;47.556;18.728;2024-01-30T11:01:45;101827.66;;;21.84;28.09
51249;BME280;39642;47.556;18.728;2024-01-30T11:04:12;101827.63;;;21.86;28.18
51249;BME280;39642;47.556;18.728;2024-01-30T11:06:42;101826.63;;;21.90;28.43
51249;BME280;39642;47.556;18.728;2024-01-30T11:09:11;101821.16;;;21.94;28.38
51249;BME280;39642;47.556;18.728;2024-01-30T11:11:58;101818.41;;;21.97;28.07
51249;BME280;39642;47.556;18.728;2024-01-30T11:14:26;101819.22;;;21.99;27.92
51249;BME280;39642;47.556;18.728;2024-01-30T11:16:53;101817.50;;;21.98;28.58
51249;BME280;39642;47.556;18.728;2024-01-30T11:19:23;101813.88;;;22.01;28.26
51249;BME280;39642;47.556;18.728;2024-01-30T11:21:52;101810.25;;;22.03;28.24
51249;BME280;39642;47.556;18.728;2024-01-30T11:24:25;101809.28;;;22.06;28.21
51249;BME280;39642;47.556;18.728;2024-01-30T11:26:59;101809.19;;;22.09;28.63
51249;BME280;39642;47.556;18.728;2024-01-30T11:29:29;101811.03;;;22.07;28.40
51249;BME280;39642;47.556;18.728;2024-01-30T11:31:58;101809.19;;;22.09;28.23
51249;BME280;39642;47.556;18.728;2024-01-30T11:34:25;101803.88;;;22.09;28.29
51249;BME280;39642;47.556;18.728;2024-01-30T11:37:03;101802.22;;;22.07;27.96
51249;BME280;39642;47.556;18.728;2024-01-30T11:39:34;101806.69;;;22.04;27.74
51249;BME280;39642;47.556;18.728;2024-01-30T11:42:03;101805.12;;;21.97;27.09
51249;BME280;39642;47.556;18.728;2024-01-30T11:44:31;101798.50;;;21.84;28.69
51249;BME280;39642;47.556;18.728;2024-01-30T11:46:58;101800.44;;;21.79;28.77
51249;BME280;39642;47.556;18.728;2024-01-30T11:49:27;101795.25;;;21.76;28.71
51249;BME280;39642;47.556;18.728;2024-01-30T11:51:55;101792.63;;;21.74;28.39
51249;BME280;39642;47.556;18.728;2024-01-30T11:54:21;101785.69;;;21.70;28.79
51249;BME280;39642;47.556;18.728;2024-01-30T11:56:47;101784.00;;;21.68;28.37
51249;BME280;39642;47.556;18.728;2024-01-30T11:59:14;101784.00;;;21.68;28.30
51249;BME280;39642;47.556;18.728;2024-01-30T12:01:40;101784.81;;;21.70;27.46
51249;BME280;39642;47.556;18.728;2024-01-30T12:04:06;101773.22;;;21.74;27.45
51249;BME280;39642;47.556;18.728;2024-01-30T12:06:35;101775.81;;;21.75;29.18
51249;BME280;39642;47.556;18.728;2024-01-30T12:09:02;101774.78;;;21.79;29.09
51249;BME280;39642;47.556;18.728;2024-01-30T12:11:45;101775.75;;;21.77;28.42
51249;BME280;39642;47.556;18.728;2024-01-30T12:14:12;101771.34;;;21.77;28.16
51249;BME280;39642;47.556;18.728;2024-01-30T12:16:38;101757.09;;;21.80;27.61
51249;BME280;39642;47.556;18.728;2024-01-30T12:19:04;101759.75;;;21.80;27.93
51249;BME280;39642;47.556;18.728;2024-01-30T12:21:30;101758.00;;;21.79;27.35
51249;BME280;39642;47.556;18.728;2024-01-30T12:23:56;101758.00;;;21.79;27.12
51249;BME280;39642;47.556;18.728;2024-01-30T12:26:24;101752.81;;;21.76;27.42
51249;BME280;39642;47.556;18.728;2024-01-30T12:28:54;101755.50;;;21.74;27.79
51249;BME280;39642;47.556;18.728;2024-01-30T12:31:31;101752.88;;;21.73;28.17
51249;BME280;39642;47.556;18.728;2024-01-30T12:33:59;101756.47;;;21.72;27.45
51249;BME280;39642;47.556;18.728;2024-01-30T12:36:26;101748.53;;;21.72;27.93
51249;BME280;39642;47.556;18.728;2024-01-30T12:38:51;101752.03;;;21.72;27.36
51249;BME280;39642;47.556;18.728;2024-01-30T12:41:17;101740.56;;;21.72;28.09
51249;BME280;39642;47.556;18.728;2024-01-30T12:43:44;101742.28;;;21.73;28.96
51249;BME280;39642;47.556;18.728;2024-01-30T12:46:10;101743.19;;;21.73;29.18
51249;BME280;39642;47.556;18.728;2024-01-30T12:48:37;101743.22;;;21.72;29.07
51249;BME280;39642;47.556;18.728;2024-01-30T12:51:03;101731.69;;;21.73;28.29
51249;BME280;39642;47.556;18.728;2024-01-30T12:53:30;101733.53;;;21.71;28.76
51249;BME280;39642;47.556;18.728;2024-01-30T12:55:55;101730.00;;;21.70;28.36
51249;BME280;39642;47.556;18.728;2024-01-30T12:58:21;101731.69;;;21.73;28.18
51249;BME280;39642;47.556;18.728;2024-01-30T13:00:47;101730.66;;;21.77;28.14
51249;BME280;39642;47.556;18.728;2024-01-30T13:03:13;101726.25;;;21.77;28.58
51249;BME280;39642;47.556;18.728;2024-01-30T13:05:39;101726.34;;;21.74;28.88
51249;BME280;39642;47.556;18.728;2024-01-30T13:08:05;101715.56;;;21.79;28.65
51249;BME280;39642;47.556;18.728;2024-01-30T13:10:31;101719.91;;;21.81;27.91
51249;BME280;39642;47.556;18.728;2024-01-30T13:12:57;101716.41;;;21.81;27.95
51249;BME280;39642;47.556;18.728;2024-01-30T13:15:23;101710.94;;;21.86;27.47
51249;BME280;39642;47.556;18.728;2024-01-30T13:17:50;101722.41;;;21.86;27.61
51249;BME280;39642;47.556;18.728;2024-01-30T13:20:15;101710.03;;;21.87;27.34
51249;BME280;39642;47.556;18.728;2024-01-30T13:22:49;101715.19;;;21.91;28.17
51249;BME280;39642;47.556;18.728;2024-01-30T13:25:17;101697.53;;;21.90;28.21
51249;BME280;39642;47.556;18.728;2024-01-30T13:27:43;101708.25;;;21.87;27.86
51249;BME280;39642;47.556;18.728;2024-01-30T13:30:09;101704.87;;;21.82;28.24
51249;BME280;39642;47.556;18.728;2024-01-30T13:32:36;101704.97;;;21.79;28.33
51249;BME280;39642;47.556;18.728;2024-01-30T13:35:02;101711.19;;;21.78;27.73
51249;BME280;39642;47.556;18.728;2024-01-30T13:37:28;101709.56;;;21.74;27.50
51249;BME280;39642;47.556;18.728;2024-01-30T13:39:56;101710.47;;;21.73;28.64
51249;BME280;39642;47.556;18.728;2024-01-30T13:42:24;101702.59;;;21.71;28.07
51249;BME280;39642;47.556;18.728;2024-01-30T13:44:50;101708.75;;;21.72;28.72
51249;BME280;39642;47.556;18.728;2024-01-30T13:47:16;101706.91;;;21.74;28.16
51249;BME280;39642;47.556;18.728;2024-01-30T13:49:42;101710.38;;;21.76;28.20
51249;BME280;39642;47.556;18.728;2024-01-30T13:52:07;101707.75;;;21.76;27.67
51249;BME280;39642;47.556;18.728;2024-01-30T13:54:34;101705.09;;;21.76;28.57
51249;BME280;39642;47.556;18.728;2024-01-30T13:57:00;101705.09;;;21.76;28.79
51249;BME280;39642;47.556;18.728;2024-01-30T13:59:26;101711.25;;;21.76;29.31